createdAt,value
2018-05-17T00:00:57.069Z,1015.19
2018-05-17T00:01:57.062Z,1015.20
2018-05-17T00:02:57.055Z,1015.20
2018-05-17T00:03:57.053Z,1015.22
2018-05-17T00:04:57.050Z,1015.19
2018-05-17T00:05:57.049Z,1015.21
2018-05-17T00:06:57.050Z,1015.24
2018-05-17T00:07:57.041Z,1015.21
2018-05-17T00:08:57.038Z,1015.27
2018-05-17T00:09:57.030Z,1015.19
2018-05-17T00:10:57.025Z,1015.23
2018-05-17T00:11:57.021Z,1015.24
2018-05-17T00:12:57.018Z,1015.26
2018-05-17T00:13:57.019Z,1015.28
2018-05-17T00:14:57.015Z,1015.24
2018-05-17T00:15:57.007Z,1015.26
2018-05-17T00:16:57.005Z,1015.25
2018-05-17T00:17:57.003Z,1015.28
2018-05-17T00:18:57.005Z,1015.25
2018-05-17T00:19:56.995Z,1015.31
2018-05-17T00:20:57.064Z,1015.27
2018-05-17T00:21:56.982Z,1015.32
2018-05-17T00:22:56.978Z,1015.36
2018-05-17T00:23:56.974Z,1015.35
2018-05-17T00:24:56.969Z,1015.34
2018-05-17T00:25:56.971Z,1015.33
2018-05-17T00:26:56.966Z,1015.30
2018-05-17T00:27:56.964Z,1015.39
2018-05-17T00:28:56.961Z,1015.36
2018-05-17T00:29:56.952Z,1015.36
2018-05-17T00:30:56.946Z,1015.35
2018-05-17T00:31:56.948Z,1015.25
2018-05-17T00:32:56.946Z,1015.32
2018-05-17T00:33:56.934Z,1015.28
2018-05-17T00:34:56.932Z,1015.32
2018-05-17T00:35:56.924Z,1015.33
2018-05-17T00:36:56.921Z,1015.35
2018-05-17T00:37:56.921Z,1015.36
2018-05-17T00:38:56.917Z,1015.35
2018-05-17T00:39:56.913Z,1015.40
2018-05-17T00:40:56.909Z,1015.38
2018-05-17T00:41:56.969Z,1015.37
2018-05-17T00:42:56.899Z,1015.36
2018-05-17T00:43:56.893Z,1015.38
2018-05-17T00:44:56.890Z,1015.41
2018-05-17T00:45:56.895Z,1015.40
2018-05-17T00:46:56.885Z,1015.41
2018-05-17T00:47:56.876Z,1015.37
2018-05-17T00:48:56.872Z,1015.42
2018-05-17T00:49:56.873Z,1015.48
2018-05-17T00:50:56.868Z,1015.46
2018-05-17T00:51:56.862Z,1015.48
2018-05-17T00:52:56.859Z,1015.52
2018-05-17T00:53:56.866Z,1015.54
2018-05-17T00:54:56.848Z,1015.54
2018-05-17T00:55:56.850Z,1015.53
2018-05-17T00:56:56.842Z,1015.51
2018-05-17T00:57:56.833Z,1015.53
2018-05-17T00:58:56.828Z,1015.51
2018-05-17T00:59:56.832Z,1015.51
2018-05-17T01:00:56.820Z,1015.56
2018-05-17T01:01:56.820Z,1015.55
2018-05-17T01:02:56.815Z,1015.55
2018-05-17T01:03:56.806Z,1015.61
2018-05-17T01:04:56.802Z,1015.54
2018-05-17T01:05:56.802Z,1015.58
2018-05-17T01:06:56.797Z,1015.53
2018-05-17T01:07:56.794Z,1015.56
2018-05-17T01:08:56.790Z,1015.56
2018-05-17T01:09:56.780Z,1015.55
2018-05-17T01:10:56.775Z,1015.56
2018-05-17T01:11:56.771Z,1015.57
2018-05-17T01:12:56.766Z,1015.58
2018-05-17T01:13:56.767Z,1015.58
2018-05-17T01:14:56.761Z,1015.58
2018-05-17T01:15:56.756Z,1015.56
2018-05-17T01:16:56.751Z,1015.56
2018-05-17T01:17:56.743Z,1015.60
2018-05-17T01:18:56.738Z,1015.65
2018-05-17T01:19:56.738Z,1015.63
2018-05-17T01:20:56.734Z,1015.68
2018-05-17T01:21:56.725Z,1015.63
2018-05-17T01:22:56.720Z,1015.70
2018-05-17T01:23:56.715Z,1015.70
2018-05-17T01:24:56.711Z,1015.73
2018-05-17T01:25:56.710Z,1015.69
2018-05-17T01:26:56.706Z,1015.71
2018-05-17T01:27:56.702Z,1015.74
2018-05-17T01:28:56.697Z,1015.77
2018-05-17T01:29:56.687Z,1015.74
2018-05-17T01:30:56.682Z,1015.77
2018-05-17T01:31:56.678Z,1015.80
2018-05-17T01:32:56.673Z,1015.78
2018-05-17T01:33:56.674Z,1015.79
2018-05-17T01:34:56.764Z,1015.82
2018-05-17T01:35:56.658Z,1015.75
2018-05-17T01:36:56.654Z,1015.79
2018-05-17T01:37:56.654Z,1015.83
2018-05-17T01:38:56.651Z,1015.81
2018-05-17T01:39:56.644Z,1015.87
2018-05-17T01:40:56.640Z,1015.89
2018-05-17T01:41:56.632Z,1015.89
2018-05-17T01:42:56.722Z,1015.90
2018-05-17T01:43:56.621Z,1015.90
2018-05-17T01:44:56.617Z,1015.87
2018-05-17T01:45:56.616Z,1015.94
2018-05-17T01:46:56.615Z,1015.92
2018-05-17T01:47:56.610Z,1015.90
2018-05-17T01:48:56.601Z,1015.87
2018-05-17T01:49:56.592Z,1015.90
2018-05-17T01:50:56.587Z,1015.95
2018-05-17T01:51:56.590Z,1015.95
2018-05-17T01:52:56.588Z,1015.93
2018-05-17T01:53:56.574Z,1015.99
2018-05-17T01:54:56.567Z,1015.93
2018-05-17T01:55:56.566Z,1015.94
2018-05-17T01:56:56.558Z,1015.95
2018-05-17T01:57:56.560Z,1015.98
2018-05-17T01:58:56.552Z,1016.02
2018-05-17T01:59:56.547Z,1016.02
2018-05-17T02:00:56.543Z,1016.02
2018-05-17T02:01:56.534Z,1016.02
2018-05-17T02:02:56.529Z,1016.06
2018-05-17T02:03:56.525Z,1016.05
2018-05-17T02:04:56.520Z,1016.05
2018-05-17T02:05:56.520Z,1016.09
2018-05-17T02:06:56.515Z,1016.06
2018-05-17T02:07:56.506Z,1016.08
2018-05-17T02:08:56.500Z,1016.09
2018-05-17T02:09:56.501Z,1016.09
2018-05-17T02:10:56.494Z,1016.08
2018-05-17T02:11:56.491Z,1016.03
2018-05-17T02:12:56.485Z,1016.09
2018-05-17T02:13:56.476Z,1016.07
2018-05-17T02:14:56.470Z,1016.09
2018-05-17T02:15:56.466Z,1016.12
2018-05-17T02:16:56.461Z,1016.15
2018-05-17T02:17:56.460Z,1016.16
2018-05-17T02:18:56.457Z,1016.14
2018-05-17T02:19:56.487Z,1016.12
2018-05-17T02:20:56.451Z,1016.11
2018-05-17T02:21:56.437Z,1016.12
2018-05-17T02:22:56.439Z,1016.11
2018-05-17T02:23:56.432Z,1016.12
2018-05-17T02:24:56.428Z,1016.09
2018-05-17T02:25:56.418Z,1016.11
2018-05-17T02:26:56.413Z,1016.07
2018-05-17T02:27:56.408Z,1016.11
2018-05-17T02:28:56.404Z,1016.14
2018-05-17T02:29:56.403Z,1016.13
2018-05-17T02:30:56.401Z,1016.12
2018-05-17T02:31:56.393Z,1016.12
2018-05-17T02:32:56.390Z,1016.13
2018-05-17T02:33:56.380Z,1016.13
2018-05-17T02:34:56.378Z,1016.10
2018-05-17T02:35:56.373Z,1016.14
2018-05-17T02:36:56.365Z,1016.14
2018-05-17T02:37:56.366Z,1016.10
2018-05-17T02:38:56.360Z,1016.10
2018-05-17T02:39:56.353Z,1016.16
2018-05-17T02:40:56.349Z,1016.10
2018-05-17T02:41:56.348Z,1016.15
2018-05-17T02:42:56.358Z,1016.15
2018-05-17T02:43:56.342Z,1016.15
2018-05-17T02:44:56.331Z,1016.11
2018-05-17T02:45:56.322Z,1016.10
2018-05-17T02:46:56.319Z,1016.09
2018-05-17T02:47:56.313Z,1016.09
2018-05-17T02:48:56.307Z,1016.15
2018-05-17T02:49:56.307Z,1016.08
2018-05-17T02:50:56.302Z,1016.12
2018-05-17T02:51:56.299Z,1016.07
2018-05-17T02:52:56.296Z,1016.10
2018-05-17T02:53:56.287Z,1016.12
2018-05-17T02:54:56.278Z,1016.10
2018-05-17T02:55:56.279Z,1016.17
2018-05-17T02:56:56.273Z,1016.16
2018-05-17T02:57:56.265Z,1016.16
2018-05-17T02:58:56.260Z,1016.16
2018-05-17T02:59:56.255Z,1016.14
2018-05-17T03:00:56.251Z,1016.20
2018-05-17T03:01:56.258Z,1016.18
2018-05-17T03:02:56.246Z,1016.18
2018-05-17T03:03:56.239Z,1016.19
2018-05-17T03:04:56.239Z,1016.22
2018-05-17T03:05:56.230Z,1016.21
2018-05-17T03:06:56.226Z,1016.23
2018-05-17T03:07:56.216Z,1016.21
2018-05-17T03:08:56.216Z,1016.17
2018-05-17T03:09:56.212Z,1016.22
2018-05-17T03:10:56.204Z,1016.25
2018-05-17T03:11:56.196Z,1016.29
2018-05-17T03:12:56.198Z,1016.26
2018-05-17T03:13:56.191Z,1016.25
2018-05-17T03:14:56.185Z,1016.25
2018-05-17T03:15:56.182Z,1016.20
2018-05-17T03:16:56.178Z,1016.23
2018-05-17T03:17:56.168Z,1016.28
2018-05-17T03:18:56.163Z,1016.30
2018-05-17T03:19:56.157Z,1016.28
2018-05-17T03:20:56.153Z,1016.32
2018-05-17T03:21:56.152Z,1016.27
2018-05-17T03:22:56.148Z,1016.33
2018-05-17T03:23:56.141Z,1016.30
2018-05-17T03:24:56.137Z,1016.29
2018-05-17T03:25:56.129Z,1016.35
2018-05-17T03:26:56.122Z,1016.28
2018-05-17T03:27:56.122Z,1016.36
2018-05-17T03:28:56.121Z,1016.36
2018-05-17T03:29:56.107Z,1016.34
2018-05-17T03:30:56.105Z,1016.36
2018-05-17T03:31:56.103Z,1016.36
2018-05-17T03:32:56.093Z,1016.32
2018-05-17T03:33:56.092Z,1016.36
2018-05-17T03:34:56.093Z,1016.31
2018-05-17T03:35:56.082Z,1016.36
2018-05-17T03:36:56.078Z,1016.29
2018-05-17T03:37:56.068Z,1016.36
2018-05-17T03:38:56.065Z,1016.35
2018-05-17T03:39:56.057Z,1016.37
2018-05-17T03:40:56.051Z,1016.32
2018-05-17T03:41:56.052Z,1016.30
2018-05-17T03:42:56.046Z,1016.34
2018-05-17T03:43:56.037Z,1016.32
2018-05-17T03:44:56.034Z,1016.30
2018-05-17T03:45:56.031Z,1016.34
2018-05-17T03:46:56.026Z,1016.32
2018-05-17T03:47:56.022Z,1016.32
2018-05-17T03:48:56.019Z,1016.34
2018-05-17T03:49:56.011Z,1016.28
2018-05-17T03:50:56.001Z,1016.29
2018-05-17T03:51:55.996Z,1016.33
2018-05-17T03:52:55.991Z,1016.33
2018-05-17T03:53:55.992Z,1016.33
2018-05-17T03:54:55.985Z,1016.30
2018-05-17T03:55:55.980Z,1016.30
2018-05-17T03:56:55.976Z,1016.28
2018-05-17T03:57:55.966Z,1016.28
2018-05-17T03:58:55.960Z,1016.32
2018-05-17T03:59:55.959Z,1016.30
2018-05-17T04:00:55.954Z,1016.31
2018-05-17T04:01:55.945Z,1016.34
2018-05-17T04:02:55.940Z,1016.32
2018-05-17T04:03:55.936Z,1016.31
2018-05-17T04:04:55.930Z,1016.36
2018-05-17T04:05:55.930Z,1016.37
2018-05-17T04:06:55.924Z,1016.40
2018-05-17T04:07:55.919Z,1016.40
2018-05-17T04:08:55.913Z,1016.41
2018-05-17T04:09:55.904Z,1016.37
2018-05-17T04:10:55.899Z,1016.40
2018-05-17T04:11:55.893Z,1016.44
2018-05-17T04:12:55.889Z,1016.45
2018-05-17T04:13:55.940Z,1016.44
2018-05-17T04:14:55.883Z,1016.45
2018-05-17T04:15:55.876Z,1016.46
2018-05-17T04:16:55.869Z,1016.45
2018-05-17T04:17:55.930Z,1016.48
2018-05-17T04:18:55.863Z,1016.51
2018-05-17T04:19:55.857Z,1016.50
2018-05-17T04:20:55.854Z,1016.44
2018-05-17T04:21:55.844Z,1016.60
2018-05-17T04:22:55.838Z,1016.56
2018-05-17T04:23:55.833Z,1016.53
2018-05-17T04:24:55.828Z,1016.54
2018-05-17T04:25:55.832Z,1016.55
2018-05-17T04:26:55.824Z,1016.52
2018-05-17T04:27:55.821Z,1016.58
2018-05-17T04:28:55.815Z,1016.57
2018-05-17T04:29:55.806Z,1016.55
2018-05-17T04:30:55.799Z,1016.56
2018-05-17T04:31:55.800Z,1016.55
2018-05-17T04:32:55.795Z,1016.60
2018-05-17T04:33:55.786Z,1016.58
2018-05-17T04:34:55.779Z,1016.59
2018-05-17T04:35:55.775Z,1016.58
2018-05-17T04:36:55.770Z,1016.59
2018-05-17T04:37:55.770Z,1016.60
2018-05-17T04:38:55.765Z,1016.59
2018-05-17T04:39:55.760Z,1016.58
2018-05-17T04:40:55.756Z,1016.59
2018-05-17T04:41:55.747Z,1016.66
2018-05-17T04:42:55.742Z,1016.66
2018-05-17T04:43:55.738Z,1016.63
2018-05-17T04:44:55.732Z,1016.65
2018-05-17T04:45:55.734Z,1016.60
2018-05-17T04:46:55.735Z,1016.63
2018-05-17T04:47:55.720Z,1016.66
2018-05-17T04:48:55.714Z,1016.60
2018-05-17T04:49:55.715Z,1016.68
2018-05-17T04:50:55.710Z,1016.64
2018-05-17T04:51:55.704Z,1016.66
2018-05-17T04:52:55.699Z,1016.70
2018-05-17T04:53:55.691Z,1016.72
2018-05-17T04:54:55.684Z,1016.74
2018-05-17T04:55:55.682Z,1016.67
2018-05-17T04:56:55.677Z,1016.73
2018-05-17T04:57:55.677Z,1016.68
2018-05-17T04:58:55.672Z,1016.71
2018-05-17T04:59:55.668Z,1016.68
2018-05-17T05:00:55.665Z,1016.72
2018-05-17T05:01:55.656Z,1016.68
2018-05-17T05:02:55.688Z,1016.74
2018-05-17T05:03:55.651Z,1016.70
2018-05-17T05:04:55.651Z,1016.69
2018-05-17T05:05:55.638Z,1016.75
2018-05-17T05:06:55.632Z,1016.73
2018-05-17T05:07:55.628Z,1016.74
2018-05-17T05:08:55.624Z,1016.74
2018-05-17T05:09:55.624Z,1016.69
2018-05-17T05:10:55.619Z,1016.72
2018-05-17T05:11:55.615Z,1016.71
2018-05-17T05:12:55.611Z,1016.70
2018-05-17T05:13:55.603Z,1016.69
2018-05-17T05:14:55.598Z,1016.68
2018-05-17T05:15:55.594Z,1016.70
2018-05-17T05:16:55.590Z,1016.73
2018-05-17T05:17:55.591Z,1016.66
2018-05-17T05:18:55.586Z,1016.75
2018-05-17T05:19:55.578Z,1016.75
2018-05-17T05:20:55.574Z,1016.75
2018-05-17T05:21:55.576Z,1016.77
2018-05-17T05:22:55.571Z,1016.79
2018-05-17T05:23:55.566Z,1016.73
2018-05-17T05:24:55.562Z,1016.72
2018-05-17T05:25:55.554Z,1016.76
2018-05-17T05:26:55.550Z,1016.74
2018-05-17T05:27:55.546Z,1016.80
2018-05-17T05:28:55.543Z,1016.75
2018-05-17T05:29:55.545Z,1016.75
2018-05-17T05:30:55.539Z,1016.77
2018-05-17T05:31:55.537Z,1016.85
2018-05-17T05:32:55.532Z,1016.82
2018-05-17T05:33:55.602Z,1016.77
2018-05-17T05:34:55.520Z,1016.76
2018-05-17T05:35:55.522Z,1016.78
2018-05-17T05:36:55.517Z,1016.75
2018-05-17T05:37:55.510Z,1016.80
2018-05-17T05:38:55.507Z,1016.83
2018-05-17T05:39:55.506Z,1016.75
2018-05-17T05:40:55.498Z,1016.79
2018-05-17T05:41:55.500Z,1016.76
2018-05-17T05:42:55.495Z,1016.74
2018-05-17T05:43:55.493Z,1016.81
2018-05-17T05:44:55.490Z,1016.81
2018-05-17T05:45:55.481Z,1016.88
2018-05-17T05:46:55.478Z,1016.85
2018-05-17T05:47:55.475Z,1016.86
2018-05-17T05:48:55.471Z,1016.90
2018-05-17T05:49:55.473Z,1016.91
2018-05-17T05:50:55.468Z,1016.90
2018-05-17T05:51:55.460Z,1016.93
2018-05-17T05:52:55.456Z,1016.95
2018-05-17T05:53:55.496Z,1016.93
2018-05-17T05:54:55.453Z,1017.01
2018-05-17T05:55:55.450Z,1017.09
2018-05-17T05:56:55.447Z,1017.03
2018-05-17T05:57:55.440Z,1017.01
2018-05-17T05:58:55.478Z,1016.99
2018-05-17T05:59:55.433Z,1017.00
2018-05-17T06:00:55.430Z,1017.03
2018-05-17T06:01:55.431Z,1017.05
2018-05-17T06:02:55.428Z,1017.05
2018-05-17T06:03:55.424Z,1017.06
2018-05-17T06:04:55.422Z,1017.11
2018-05-17T06:05:55.419Z,1017.10
2018-05-17T06:06:55.410Z,1017.15
2018-05-17T06:07:55.412Z,1017.14
2018-05-17T06:08:55.409Z,1017.18
2018-05-17T06:09:55.402Z,1017.16
2018-05-17T06:10:55.398Z,1017.17
2018-05-17T06:11:55.395Z,1017.14
2018-05-17T06:12:55.393Z,1017.18
2018-05-17T06:13:55.395Z,1017.16
2018-05-17T06:14:55.390Z,1017.17
2018-05-17T06:15:55.389Z,1017.12
2018-05-17T06:16:55.387Z,1017.16
2018-05-17T06:17:55.380Z,1017.14
2018-05-17T06:18:55.376Z,1017.19
2018-05-17T06:19:55.374Z,1017.17
2018-05-17T06:20:55.372Z,1017.14
2018-05-17T06:21:55.375Z,1017.14
2018-05-17T06:22:55.372Z,1017.18
2018-05-17T06:23:55.364Z,1017.22
2018-05-17T06:24:55.362Z,1017.12
2018-05-17T06:25:55.365Z,1017.13
2018-05-17T06:26:55.363Z,1017.14
2018-05-17T06:27:55.360Z,1017.18
2018-05-17T06:28:55.359Z,1017.53
2018-05-17T06:29:55.352Z,1017.11
2018-05-17T06:30:55.349Z,1017.10
2018-05-17T06:31:55.357Z,1017.17
2018-05-17T06:32:55.344Z,1017.13
2018-05-17T06:33:55.349Z,1017.13
2018-05-17T06:34:55.345Z,1017.14
2018-05-17T06:35:55.341Z,1017.15
2018-05-17T06:36:55.340Z,1017.14
2018-05-17T06:37:55.333Z,1017.12
2018-05-17T06:38:55.331Z,1017.17
2018-05-17T06:39:55.333Z,1017.09
2018-05-17T06:40:55.332Z,1017.14
2018-05-17T06:41:55.326Z,1017.16
2018-05-17T06:42:55.322Z,1017.12
2018-05-17T06:43:55.378Z,1017.13
2018-05-17T06:44:55.318Z,1017.15
2018-05-17T06:45:55.320Z,1017.18
2018-05-17T06:46:55.317Z,1017.16
2018-05-17T06:47:55.321Z,1017.22
2018-05-17T06:48:55.315Z,1017.15
2018-05-17T06:49:55.313Z,1017.13
2018-05-17T06:50:55.304Z,1017.14
2018-05-17T06:51:55.396Z,1017.15
2018-05-17T06:52:55.304Z,1017.16
2018-05-17T06:53:55.303Z,1017.18
2018-05-17T06:54:55.300Z,1017.21
2018-05-17T06:55:55.298Z,1017.25
2018-05-17T06:56:55.293Z,1017.25
2018-05-17T06:57:55.295Z,1017.30
2018-05-17T06:58:55.294Z,1017.35
2018-05-17T06:59:55.291Z,1017.84
2018-05-17T07:00:55.309Z,1017.42
2018-05-17T07:01:55.284Z,1017.58
2018-05-17T07:02:55.282Z,1017.37
2018-05-17T07:03:55.280Z,1017.38
2018-05-17T07:04:55.279Z,1017.32
2018-05-17T07:05:55.283Z,1017.35
2018-05-17T07:06:55.280Z,1017.41
2018-05-17T07:07:55.278Z,1017.32
2018-05-17T07:08:55.278Z,1017.33
2018-05-17T07:09:55.273Z,1017.35
2018-05-17T07:10:55.271Z,1017.35
2018-05-17T07:11:55.274Z,1017.42
2018-05-17T07:12:55.274Z,1017.50
2018-05-17T07:13:55.270Z,1018.11
2018-05-17T07:14:55.268Z,1017.54
2018-05-17T07:15:55.268Z,1018.24
2018-05-17T07:16:55.271Z,1018.33
2018-05-17T07:17:55.332Z,1018.01
2018-05-17T07:18:55.272Z,1018.35
2018-05-17T07:19:55.271Z,1018.57
2018-05-17T07:20:55.272Z,1018.46
2018-05-17T07:21:55.269Z,1018.43
2018-05-17T07:22:55.269Z,1018.65
2018-05-17T07:23:55.273Z,1017.90
2018-05-17T07:24:55.273Z,1017.74
2018-05-17T07:25:55.282Z,1017.67
2018-05-17T07:26:55.283Z,1017.68
2018-05-17T07:27:55.282Z,1017.74
2018-05-17T07:28:55.285Z,1017.73
2018-05-17T07:29:55.358Z,1017.82
2018-05-17T07:30:55.297Z,1017.68
2018-05-17T07:31:55.302Z,1017.59
2018-05-17T07:32:55.305Z,1017.63
2018-05-17T07:33:55.305Z,1017.61
2018-05-17T07:34:55.308Z,1017.71
2018-05-17T07:35:55.313Z,1017.63
2018-05-17T07:36:55.315Z,1017.64
2018-05-17T07:37:55.327Z,1017.61
2018-05-17T07:38:55.328Z,1017.57
2018-05-17T07:39:55.332Z,1017.60
2018-05-17T07:40:55.336Z,1017.59
2018-05-17T07:41:55.340Z,1017.61
2018-05-17T07:42:55.338Z,1017.58
2018-05-17T07:43:55.347Z,1017.66
2018-05-17T07:44:55.352Z,1017.96
2018-05-17T07:45:55.351Z,1018.04
2018-05-17T07:46:55.357Z,1017.81
2018-05-17T07:47:55.355Z,1018.19
2018-05-17T07:48:55.359Z,1018.04
2018-05-17T07:49:55.369Z,1017.89
2018-05-17T07:50:55.370Z,1017.93
2018-05-17T07:51:55.375Z,1018.05
2018-05-17T07:52:55.379Z,1017.93
2018-05-17T07:53:55.382Z,1018.03
2018-05-17T07:54:55.385Z,1017.86
2018-05-17T07:55:55.390Z,1018.17
2018-05-17T07:56:55.396Z,1018.22
2018-05-17T07:57:55.405Z,1018.29
2018-05-17T07:58:55.412Z,1018.28
2018-05-17T07:59:55.411Z,1018.40
2018-05-17T08:00:55.418Z,1018.39
2018-05-17T08:01:55.430Z,1018.39
2018-05-17T08:02:55.435Z,1018.48
2018-05-17T08:03:55.443Z,1018.44
2018-05-17T08:04:55.448Z,1018.46
2018-05-17T08:05:55.453Z,1018.40
2018-05-17T08:06:55.464Z,1018.45
2018-05-17T08:07:55.467Z,1018.46
2018-05-17T08:08:55.484Z,1018.39
2018-05-17T08:09:55.488Z,1018.48
2018-05-17T08:10:55.496Z,1018.56
2018-05-17T08:11:55.506Z,1018.49
2018-05-17T08:12:55.517Z,1018.60
2018-05-17T08:13:55.524Z,1018.68
2018-05-17T08:14:55.530Z,1018.73
2018-05-17T08:15:55.552Z,1018.78
2018-05-17T08:16:55.561Z,1018.81
2018-05-17T08:17:55.580Z,1018.34
2018-05-17T08:18:55.575Z,1018.93
2018-05-17T08:19:55.585Z,1018.19
2018-05-17T08:20:55.597Z,1018.88
2018-05-17T08:21:55.614Z,1018.98
2018-05-17T08:22:55.623Z,1018.62
2018-05-17T08:23:55.637Z,1019.07
2018-05-17T08:25:04.110Z,1019.20
2018-05-17T08:26:55.668Z,1018.68
2018-05-17T08:27:55.681Z,1018.16
2018-05-17T08:28:55.696Z,1018.04
2018-05-17T08:29:55.705Z,1018.01
2018-05-17T08:30:55.721Z,1017.99
2018-05-17T08:31:55.734Z,1018.11
2018-05-17T08:32:55.742Z,1018.23
2018-05-17T08:33:55.753Z,1018.44
2018-05-17T08:34:55.769Z,1018.27
2018-05-17T08:35:55.780Z,1018.93
2018-05-17T08:36:55.793Z,1019.66
2018-05-17T08:37:55.806Z,1019.19
2018-05-17T08:38:55.809Z,1018.43
2018-05-17T08:39:55.818Z,1019.65
2018-05-17T08:40:55.833Z,1019.09
2018-05-17T08:41:55.840Z,1019.69
2018-05-17T08:42:55.854Z,1019.71
2018-05-17T08:43:55.865Z,1019.85
2018-05-17T08:44:55.874Z,1019.86
2018-05-17T08:45:55.885Z,1019.87
2018-05-17T08:46:55.890Z,1019.78
2018-05-17T08:47:55.903Z,1019.79
2018-05-17T08:48:55.920Z,1019.65
2018-05-17T08:49:55.932Z,1019.65
2018-05-17T08:50:55.939Z,1019.66
2018-05-17T08:51:55.952Z,1019.69
2018-05-17T08:52:55.965Z,1019.69
2018-05-17T08:53:55.978Z,1019.73
2018-05-17T08:54:55.995Z,1019.81
2018-05-17T08:55:56.010Z,1019.79
2018-05-17T08:56:56.024Z,1019.86
2018-05-17T08:57:56.038Z,1019.88
2018-05-17T08:58:56.047Z,1019.89
2018-05-17T08:59:56.061Z,1020.00
2018-05-17T09:00:56.075Z,1020.16
2018-05-17T09:01:56.089Z,1020.17
2018-05-17T09:02:56.109Z,1020.12
2018-05-17T09:03:56.122Z,1020.11
2018-05-17T09:04:56.133Z,1020.17
2018-05-17T09:05:56.149Z,1019.89
2018-05-17T09:06:56.168Z,1019.27
2018-05-17T09:07:56.183Z,1020.35
2018-05-17T09:08:56.199Z,1019.65
2018-05-17T09:09:56.216Z,1019.42
2018-05-17T09:10:56.226Z,1018.87
2018-05-17T09:11:56.267Z,1019.88
2018-05-17T09:12:56.256Z,1019.64
2018-05-17T09:13:56.363Z,1019.56
2018-05-17T09:14:56.291Z,1019.46
2018-05-17T09:15:56.307Z,1019.49
2018-05-17T09:16:56.323Z,1019.53
2018-05-17T09:17:56.339Z,1019.47
2018-05-17T09:18:56.351Z,1019.42
2018-05-17T09:19:56.366Z,1019.39
2018-05-17T09:20:56.385Z,1019.34
2018-05-17T09:21:56.402Z,1019.28
2018-05-17T09:22:56.413Z,1019.29
2018-05-17T09:23:56.429Z,1019.29
2018-05-17T09:24:56.445Z,1019.27
2018-05-17T09:25:56.464Z,1019.00
2018-05-17T09:26:56.481Z,1018.72
2018-05-17T09:27:56.496Z,1018.79
2018-05-17T09:28:56.507Z,1018.66
2018-05-17T09:29:56.523Z,1018.53
2018-05-17T09:30:56.544Z,1018.79
2018-05-17T09:31:56.560Z,1018.78
2018-05-17T09:32:56.574Z,1018.72
2018-05-17T09:33:56.591Z,1018.68
2018-05-17T09:34:56.601Z,1018.59
2018-05-17T09:35:56.617Z,1018.60
2018-05-17T09:36:56.639Z,1018.55
2018-05-17T09:37:56.653Z,1018.62
2018-05-17T09:38:56.664Z,1018.55
2018-05-17T09:39:56.681Z,1018.58
2018-05-17T09:40:56.697Z,1018.62
2018-05-17T09:41:56.720Z,1018.57
2018-05-17T09:42:56.734Z,1018.63
2018-05-17T09:43:56.750Z,1018.63
2018-05-17T09:44:56.766Z,1018.58
2018-05-17T09:45:56.781Z,1018.57
2018-05-17T09:46:56.792Z,1018.55
2018-05-17T09:47:56.809Z,1018.54
2018-05-17T09:48:56.825Z,1018.52
2018-05-17T09:49:56.842Z,1018.54
2018-05-17T09:50:56.861Z,1018.51
2018-05-17T09:51:56.888Z,1018.54
2018-05-17T09:52:56.891Z,1018.55
2018-05-17T09:53:56.907Z,1018.60
2018-05-17T09:54:56.993Z,1018.56
2018-05-17T09:55:56.948Z,1018.60
2018-05-17T09:56:56.962Z,1018.59
2018-05-17T09:57:56.979Z,1018.59
2018-05-17T09:58:56.991Z,1018.57
2018-05-17T09:59:57.008Z,1018.54
2018-05-17T10:00:57.027Z,1018.51
2018-05-17T10:01:57.043Z,1018.49
2018-05-17T10:02:57.076Z,1018.59
2018-05-17T10:03:57.081Z,1018.36
2018-05-17T10:04:57.098Z,1018.49
2018-05-17T10:05:57.115Z,1018.46
2018-05-17T10:06:57.127Z,1018.45
2018-05-17T10:07:57.144Z,1018.44
2018-05-17T10:08:57.172Z,1018.43
2018-05-17T10:09:57.182Z,1018.42
2018-05-17T10:10:57.196Z,1018.46
2018-05-17T10:11:57.217Z,1018.47
2018-05-17T10:12:57.228Z,1018.50
2018-05-17T10:13:57.246Z,1018.50
2018-05-17T10:14:57.266Z,1018.46
2018-05-17T10:15:57.284Z,1018.44
2018-05-17T10:16:57.301Z,1018.44
2018-05-17T10:17:57.318Z,1018.39
2018-05-17T10:18:57.329Z,1018.36
2018-05-17T10:19:57.346Z,1018.36
2018-05-17T10:20:57.363Z,1018.37
2018-05-17T10:21:57.379Z,1018.36
2018-05-17T10:22:57.484Z,1018.32
2018-05-17T10:23:57.417Z,1018.28
2018-05-17T10:24:57.431Z,1018.30
2018-05-17T10:25:57.446Z,1018.31
2018-05-17T10:26:57.466Z,1018.25
2018-05-17T10:27:57.483Z,1018.28
2018-05-17T10:28:57.503Z,1018.26
2018-05-17T10:29:57.518Z,1018.33
2018-05-17T10:30:57.529Z,1018.30
2018-05-17T10:31:57.545Z,1018.29
2018-05-17T10:32:57.561Z,1018.26
2018-05-17T10:33:57.580Z,1018.22
2018-05-17T10:34:57.598Z,1018.25
2018-05-17T10:35:57.616Z,1018.22
2018-05-17T10:36:57.637Z,1018.24
2018-05-17T10:37:57.649Z,1018.22
2018-05-17T10:38:57.660Z,1018.23
2018-05-17T10:39:57.677Z,1018.19
2018-05-17T10:40:57.699Z,1018.17
2018-05-17T10:41:57.716Z,1018.16
2018-05-17T10:42:57.727Z,1018.21
2018-05-17T10:43:57.744Z,1018.17
2018-05-17T10:44:57.761Z,1018.14
2018-05-17T10:45:57.779Z,1018.26
2018-05-17T10:46:57.802Z,1018.27
2018-05-17T10:47:57.815Z,1018.25
2018-05-17T10:48:57.920Z,1018.18
2018-05-17T10:49:57.848Z,1018.20
2018-05-17T10:50:57.861Z,1018.27
2018-05-17T10:51:57.876Z,1018.25
2018-05-17T10:52:57.892Z,1018.23
2018-05-17T10:53:57.909Z,1018.19
2018-05-17T10:54:57.930Z,1018.18
2018-05-17T10:55:57.947Z,1018.24
2018-05-17T10:56:57.958Z,1018.22
2018-05-17T10:57:57.974Z,1018.16
2018-05-17T10:58:57.993Z,1018.11
2018-05-17T10:59:58.011Z,1018.10
2018-05-17T11:00:58.030Z,1018.06
2018-05-17T11:01:58.041Z,1018.10
2018-05-17T11:02:58.060Z,1018.13
2018-05-17T11:03:58.071Z,1018.08
2018-05-17T11:04:58.087Z,1018.11
2018-05-17T11:05:58.103Z,1018.09
2018-05-17T11:06:58.121Z,1018.09
2018-05-17T11:07:58.138Z,1018.09
2018-05-17T11:08:58.155Z,1018.10
2018-05-17T11:09:58.171Z,1018.05
2018-05-17T11:10:58.181Z,1017.98
2018-05-17T11:11:58.201Z,1017.99
2018-05-17T11:12:58.218Z,1018.01
2018-05-17T11:13:58.234Z,1017.93
2018-05-17T11:14:58.243Z,1017.95
2018-05-17T11:15:58.259Z,1017.83
2018-05-17T11:16:58.274Z,1017.79
2018-05-17T11:17:58.288Z,1017.72
2018-05-17T11:18:58.307Z,1017.60
2018-05-17T11:19:58.322Z,1017.61
2018-05-17T11:20:58.339Z,1017.60
2018-05-17T11:21:58.350Z,1017.56
2018-05-17T11:22:58.359Z,1017.50
2018-05-17T11:23:58.371Z,1017.45
2018-05-17T11:24:58.388Z,1017.48
2018-05-17T11:25:58.483Z,1017.44
2018-05-17T11:26:58.412Z,1017.41
2018-05-17T11:27:58.423Z,1017.48
2018-05-17T11:28:58.429Z,1017.40
2018-05-17T11:29:58.440Z,1017.42
2018-05-17T11:30:58.454Z,1017.41
2018-05-17T11:31:58.464Z,1017.35
2018-05-17T11:32:58.540Z,1017.32
2018-05-17T11:33:58.481Z,1017.32
2018-05-17T11:34:58.484Z,1017.30
2018-05-17T11:35:58.494Z,1017.27
2018-05-17T11:36:58.503Z,1017.34
2018-05-17T11:37:58.509Z,1017.28
2018-05-17T11:38:58.520Z,1017.29
2018-05-17T11:39:58.528Z,1017.21
2018-05-17T11:40:58.534Z,1017.18
2018-05-17T11:41:58.542Z,1017.18
2018-05-17T11:42:58.543Z,1017.12
2018-05-17T11:43:58.549Z,1017.09
2018-05-17T11:44:58.560Z,1017.10
2018-05-17T11:45:58.566Z,1017.14
2018-05-17T11:46:58.567Z,1017.20
2018-05-17T11:47:58.573Z,1017.14
2018-05-17T11:48:58.578Z,1017.16
2018-05-17T11:49:58.583Z,1017.15
2018-05-17T11:50:58.592Z,1017.16
2018-05-17T11:51:58.597Z,1017.21
2018-05-17T11:52:58.603Z,1017.12
2018-05-17T11:53:58.607Z,1017.00
2018-05-17T11:54:58.606Z,1017.09
2018-05-17T11:55:58.609Z,1017.10
2018-05-17T11:56:58.614Z,1017.03
2018-05-17T11:57:58.622Z,1017.05
2018-05-17T11:58:58.626Z,1017.07
2018-05-17T11:59:58.630Z,1017.03
2018-05-17T12:00:58.631Z,1016.99
2018-05-17T12:01:58.633Z,1017.04
2018-05-17T12:02:58.640Z,1016.99
2018-05-17T12:03:58.646Z,1017.01
2018-05-17T12:04:58.648Z,1016.95
2018-05-17T12:05:58.652Z,1016.97
2018-05-17T12:06:58.650Z,1017.00